Time;durP1;ratioP1;P1;durP2;ratioP2;P2;SDS_P1;SDS_P2;PMS_P1;PMS_P2;Temp;Humidity;BMP_temperature;BMP_pressure;BME280_temperature;BME280_humidity;BME280_pressure;Samples;Min_cycle;Max_cycle;Signal;HPM_P1;HPM_P2
2023/01/06 00:00:30;;;;;;;;;;;;;;;25.51;40.71;94857.25;4871963;29;9133;-73
2023/01/06 00:03:31;;;;;;;;;;;;;;;25.56;40.48;94846.22;4800093;29;7052;-72
2023/01/06 00:06:10;;;;;;;;;;;;;;;25.52;40.71;94842.97;4802475;29;7294;-73
2023/01/06 00:08:37;;;;;;;;;;;;;;;25.49;41.11;94846.69;4788688;29;8751;-73
2023/01/06 00:11:12;;;;;;;;;;;;;;;25.49;40.37;94841.19;4786253;29;7213;-73
2023/01/06 00:13:39;;;;;;;;;;;;;;;25.51;41.05;94855.25;4805222;29;7000;-73
2023/01/06 00:16:07;;;;;;;;;;;;;;;25.52;41.27;94847.72;4788178;29;9859;-73
2023/01/06 00:18:36;;;;;;;;;;;;;;;25.52;40.53;94840.19;4782724;29;8966;-73
2023/01/06 00:21:07;;;;;;;;;;;;;;;25.50;40.50;94845.47;4822198;29;7291;-73
2023/01/06 00:23:38;;;;;;;;;;;;;;;25.47;40.50;94842.97;4874546;29;7026;-72
2023/01/06 00:26:06;;;;;;;;;;;;;;;25.48;40.46;94844.44;4860157;29;7429;-73
2023/01/06 00:28:35;;;;;;;;;;;;;;;25.50;40.26;94841.94;4875321;29;9278;-73
2023/01/06 00:31:27;;;;;;;;;;;;;;;25.54;40.58;94842.44;4872210;29;9059;-73
2023/01/06 00:33:57;;;;;;;;;;;;;;;25.51;41.28;94824.94;4859165;29;7639;-72
2023/01/06 00:36:24;;;;;;;;;;;;;;;25.54;41.14;94834.94;4874451;29;7255;-72
2023/01/06 00:38:52;;;;;;;;;;;;;;;25.56;40.13;94829.69;4901773;28;7226;-73
2023/01/06 00:44:08;;;;;;;;;;;;;;;25.50;40.94;94823.44;4968359;28;7202;-72
2023/01/06 00:46:35;;;;;;;;;;;;;;;25.48;40.77;94822.41;4965653;28;7277;-72
2023/01/06 00:49:03;;;;;;;;;;;;;;;25.48;41.19;94812.16;4969608;28;9109;-73
2023/01/06 00:52:02;;;;;;;;;;;;;;;25.47;40.43;94810.66;4972215;28;7134;-72
2023/01/06 00:54:36;;;;;;;;;;;;;;;25.49;41.04;94815.69;4954552;28;7432;-73
2023/01/06 00:57:05;;;;;;;;;;;;;;;25.51;40.91;94804.91;4954311;28;7210;-72
2023/01/06 00:59:32;;;;;;;;;;;;;;;25.49;40.52;94801.91;4935707;28;7029;-73
2023/01/06 01:01:59;;;;;;;;;;;;;;;25.44;40.96;94808.91;4927611;28;7046;-73
2023/01/06 01:04:25;;;;;;;;;;;;;;;25.42;40.78;94809.38;4932219;29;8966;-73
2023/01/06 01:06:52;;;;;;;;;;;;;;;25.44;41.44;94811.66;4933025;28;7077;-72
2023/01/06 01:09:26;;;;;;;;;;;;;;;25.43;41.47;94799.88;4933572;28;7286;-72
2023/01/06 01:12:09;;;;;;;;;;;;;;;25.47;41.45;94809.91;4935330;28;7114;-72
2023/01/06 01:14:51;;;;;;;;;;;;;;;25.47;40.87;94807.88;4946564;28;7054;-72
2023/01/06 01:17:22;;;;;;;;;;;;;;;25.46;41.41;94806.41;4929233;28;6861;-72
2023/01/06 01:19:50;;;;;;;;;;;;;;;25.46;40.64;94809.16;4939881;28;7232;-72
2023/01/06 01:22:16;;;;;;;;;;;;;;;25.48;40.94;94811.41;4944641;28;7477;-72
2023/01/06 01:24:44;;;;;;;;;;;;;;;25.48;40.88;94805.91;4957054;28;7930;-72
2023/01/06 01:27:10;;;;;;;;;;;;;;;25.49;40.51;94802.63;4953085;28;7125;-72
2023/01/06 01:29:38;;;;;;;;;;;;;;;25.48;41.00;94809.41;4952737;28;8679;-72
2023/01/06 01:32:04;;;;;;;;;;;;;;;25.46;41.23;94814.66;4988821;28;8612;-73
2023/01/06 01:34:38;;;;;;;;;;;;;;;25.45;41.02;94813.16;4961113;28;9027;-72
2023/01/06 01:37:10;;;;;;;;;;;;;;;25.43;40.89;94807.41;4974577;28;9169;-72
2023/01/06 01:39:38;;;;;;;;;;;;;;;25.45;40.50;94813.16;4968910;28;7346;-73
2023/01/06 01:42:06;;;;;;;;;;;;;;;25.42;41.10;94812.16;4973782;28;9137;-73
2023/01/06 01:45:26;;;;;;;;;;;;;;;25.47;41.15;94813.41;4963336;28;7278;-73
2023/01/06 01:48:29;;;;;;;;;;;;;;;25.49;41.33;94816.41;4887998;29;7355;-73
2023/01/06 01:51:03;;;;;;;;;;;;;;;25.49;41.18;94816.41;4873574;29;7771;-73
2023/01/06 01:53:39;;;;;;;;;;;;;;;25.49;40.28;94819.16;4883126;29;9085;-73
2023/01/06 01:56:09;;;;;;;;;;;;;;;25.48;41.40;94820.44;4866056;29;9314;-72
2023/01/06 01:58:43;;;;;;;;;;;;;;;25.46;40.54;94808.41;4886315;29;9476;-73
2023/01/06 02:01:11;;;;;;;;;;;;;;;25.46;41.29;94813.91;4870433;29;9000;-73
2023/01/06 02:03:40;;;;;;;;;;;;;;;25.48;41.38;94816.91;4877033;29;8867;-73
2023/01/06 02:06:20;;;;;;;;;;;;;;;25.47;41.39;94821.66;4892195;29;7048;-73
2023/01/06 02:09:06;;;;;;;;;;;;;;;25.46;41.01;94814.66;4885762;29;7248;-73
2023/01/06 02:11:46;;;;;;;;;;;;;;;25.46;40.55;94819.41;4878662;29;7314;-72
2023/01/06 02:14:19;;;;;;;;;;;;;;;25.48;40.94;94814.91;4890939;29;8756;-72
2023/01/06 02:17:03;;;;;;;;;;;;;;;25.46;41.42;94814.66;4875834;29;7023;-72
2023/01/06 02:19:47;;;;;;;;;;;;;;;25.45;41.40;94815.19;4884617;29;8869;-72
2023/01/06 02:22:49;;;;;;;;;;;;;;;25.45;40.55;94813.16;4939719;28;9440;-73
2023/01/06 02:25:14;;;;;;;;;;;;;;;25.42;41.03;94803.88;4957254;28;7538;-72
2023/01/06 02:31:18;;;;;;;;;;;;;;;25.39;41.55;94799.38;4969952;28;7200;-73
2023/01/06 02:34:25;;;;;;;;;;;;;;;25.43;41.18;94807.41;4968891;28;7192;-72
2023/01/06 02:37:03;;;;;;;;;;;;;;;25.45;41.26;94812.41;4979509;28;7660;-72
2023/01/06 02:40:17;;;;;;;;;;;;;;;25.46;40.54;94805.66;4962379;28;7652;-72
2023/01/06 02:43:04;;;;;;;;;;;;;;;25.43;41.08;94810.91;4929463;29;9067;-72
2023/01/06 02:45:38;;;;;;;;;;;;;;;25.41;40.64;94801.59;4928959;28;7355;-72
2023/01/06 02:48:10;;;;;;;;;;;;;;;25.41;41.53;94802.38;4930871;28;9075;-72
2023/01/06 02:50:39;;;;;;;;;;;;;;;25.43;40.50;94804.63;4929585;28;7292;-72
2023/01/06 02:53:38;;;;;;;;;;;;;;;25.43;41.33;94790.88;4911912;29;8898;-72
2023/01/06 02:56:04;;;;;;;;;;;;;;;25.45;41.06;94793.16;4911372;29;7519;-72
2023/01/06 02:58:45;;;;;;;;;;;;;;;25.47;41.34;94794.13;4908593;29;7547;-73
2023/01/06 03:01:37;;;;;;;;;;;;;;;25.46;40.56;94795.38;4916899;29;7218;-73
2023/01/06 03:04:10;;;;;;;;;;;;;;;25.45;40.57;94788.38;4912375;29;9440;-73
2023/01/06 03:06:46;;;;;;;;;;;;;;;25.42;40.60;94789.38;4915210;29;9234;-72
2023/01/06 03:09:17;;;;;;;;;;;;;;;25.45;40.56;94782.13;4908315;29;7842;-73
2023/01/06 03:11:51;;;;;;;;;;;;;;;25.42;40.55;94779.09;4926930;29;7141;-73
2023/01/06 03:14:21;;;;;;;;;;;;;;;25.45;41.56;94785.59;4953127;28;7040;-73
2023/01/06 03:16:47;;;;;;;;;;;;;;;25.45;41.20;94782.84;4967250;28;6993;-73
2023/01/06 03:19:19;;;;;;;;;;;;;;;25.45;40.87;94782.84;4970764;28;8987;-73
2023/01/06 03:21:53;;;;;;;;;;;;;;;25.45;40.72;94784.88;4969292;28;7419;-72
2023/01/06 03:24:21;;;;;;;;;;;;;;;25.45;41.44;94784.88;4976355;28;7474;-72
2023/01/06 03:26:52;;;;;;;;;;;;;;;25.43;41.10;94783.38;4967463;28;7277;-73
2023/01/06 03:29:22;;;;;;;;;;;;;;;25.40;41.31;94780.84;4979146;28;7256;-73
2023/01/06 03:32:22;;;;;;;;;;;;;;;25.39;41.54;94788.34;4969722;28;8401;-73
2023/01/06 03:35:23;;;;;;;;;;;;;;;25.42;41.60;94781.84;4983056;28;7282;-72
2023/01/06 03:38:34;;;;;;;;;;;;;;;25.40;41.14;94784.31;4975524;28;8844;-72
2023/01/06 03:43:10;;;;;;;;;;;;;;;25.40;40.57;94787.06;4965519;28;7365;-72
2023/01/06 03:44:26;;;;;;;;;;;;;;;25.40;40.82;94784.31;4962938;28;7034;-72
2023/01/06 03:47:04;;;;;;;;;;;;;;;25.39;41.43;94777.34;4957849;28;9586;-72
2023/01/06 03:49:55;;;;;;;;;;;;;;;25.41;40.98;94774.06;4969939;28;7258;-72
2023/01/06 03:52:31;;;;;;;;;;;;;;;25.38;41.37;94770.31;4988023;28;9315;-72
2023/01/06 03:55:07;;;;;;;;;;;;;;;25.37;40.61;94773.56;4975714;28;7228;-72
2023/01/06 03:57:54;;;;;;;;;;;;;;;25.39;40.79;94777.34;4964146;28;7276;-72
2023/01/06 04:00:27;;;;;;;;;;;;;;;25.38;41.24;94775.09;4969418;28;9240;-72
2023/01/06 04:02:53;;;;;;;;;;;;;;;25.38;40.71;94780.59;4982668;28;7130;-72
2023/01/06 04:05:23;;;;;;;;;;;;;;;25.40;41.60;94775.34;4968472;28;9653;-73
2023/01/06 04:08:37;;;;;;;;;;;;;;;25.41;40.56;94779.56;4974283;28;7108;-73
2023/01/06 04:14:49;;;;;;;;;;;;;;;25.38;40.54;94781.31;4914750;29;9421;-72
2023/01/06 04:17:15;;;;;;;;;;;;;;;25.36;40.98;94785.81;4915411;29;9495;-73
2023/01/06 04:19:41;;;;;;;;;;;;;;;25.33;41.34;94779.34;4915041;29;9399;-73
2023/01/06 04:22:07;;;;;;;;;;;;;;;25.36;41.07;94783.81;4900912;29;6981;-72
2023/01/06 04:24:55;;;;;;;;;;;;;;;25.37;41.40;94784.59;4916334;29;8999;-72
2023/01/06 04:27:44;;;;;;;;;;;;;;;25.37;41.72;94792.84;4916298;29;7083;-72
2023/01/06 04:30:35;;;;;;;;;;;;;;;25.38;41.53;94789.59;4916331;29;7130;-73
2023/01/06 04:33:27;;;;;;;;;;;;;;;25.40;41.48;94789.09;4900577;29;9241;-72
2023/01/06 04:35:54;;;;;;;;;;;;;;;25.36;40.78;94783.81;4897951;29;9082;-72
2023/01/06 04:38:38;;;;;;;;;;;;;;;25.38;41.51;94794.38;4897655;29;9039;-73
2023/01/06 04:41:04;;;;;;;;;;;;;;;25.37;41.57;94803.84;4914069;29;7321;-73
2023/01/06 04:43:30;;;;;;;;;;;;;;;25.36;41.11;94792.09;4912403;29;8740;-72
2023/01/06 04:46:00;;;;;;;;;;;;;;;25.37;41.07;94798.34;4894037;29;9330;-72
2023/01/06 04:48:26;;;;;;;;;;;;;;;25.36;41.13;94794.84;4953907;28;9329;-72
2023/01/06 04:51:08;;;;;;;;;;;;;;;25.36;41.60;94799.59;4968735;28;7260;-72
2023/01/06 04:53:39;;;;;;;;;;;;;;;25.35;41.22;94800.84;4983416;28;7153;-73
2023/01/06 04:56:13;;;;;;;;;;;;;;;25.37;41.09;94795.59;4984339;28;9067;-72
2023/01/06 04:58:39;;;;;;;;;;;;;;;25.36;40.62;94786.59;4969130;28;7120;-72
2023/01/06 05:01:12;;;;;;;;;;;;;;;25.36;40.68;94794.84;4963041;28;7121;-72
2023/01/06 05:03:40;;;;;;;;;;;;;;;25.36;40.95;94797.59;4970588;28;7460;-72
2023/01/06 05:06:10;;;;;;;;;;;;;;;25.38;41.26;94797.13;4971822;28;9000;-72
2023/01/06 05:08:41;;;;;;;;;;;;;;;25.36;40.64;94791.31;4969580;28;7654;-72
2023/01/06 05:11:13;;;;;;;;;;;;;;;25.34;41.61;94802.09;4971657;28;7312;-72
2023/01/06 05:13:43;;;;;;;;;;;;;;;25.35;40.86;94800.84;4970087;28;7402;-72
2023/01/06 05:16:23;;;;;;;;;;;;;;;25.31;40.71;94808.63;4968941;28;7215;-72
2023/01/06 05:18:49;;;;;;;;;;;;;;;25.31;41.22;94809.38;4980940;28;9473;-72
2023/01/06 05:21:15;;;;;;;;;;;;;;;25.28;40.90;94807.59;4972269;28;7296;-72
2023/01/06 05:23:46;;;;;;;;;;;;;;;25.30;40.87;94807.84;4972052;28;9073;-72
2023/01/06 05:26:25;;;;;;;;;;;;;;;25.33;41.51;94817.13;4968730;28;7201;-73
2023/01/06 05:28:51;;;;;;;;;;;;;;;25.36;40.59;94810.59;4976982;28;7034;-73
2023/01/06 05:31:19;;;;;;;;;;;;;;;25.34;41.20;94818.63;4983558;28;9113;-72
2023/01/06 05:33:50;;;;;;;;;;;;;;;25.34;41.05;94816.63;4969448;28;8925;-72
2023/01/06 05:36:20;;;;;;;;;;;;;;;25.33;41.49;94817.13;4968707;28;9487;-72
2023/01/06 05:38:55;;;;;;;;;;;;;;;25.33;41.02;94817.13;4967862;28;7010;-72
2023/01/06 05:41:21;;;;;;;;;;;;;;;25.33;41.59;94814.38;4967257;28;7108;-72
2023/01/06 05:43:49;;;;;;;;;;;;;;;25.34;41.39;94824.13;4966622;28;8716;-72
2023/01/06 05:46:17;;;;;;;;;;;;;;;25.31;40.68;94820.38;4961954;28;7120;-72
2023/01/06 05:48:43;;;;;;;;;;;;;;;25.32;41.36;94827.38;4968905;28;7084;-72
2023/01/06 05:51:18;;;;;;;;;;;;;;;25.37;41.10;94823.13;4968862;28;6974;-72
2023/01/06 05:53:47;;;;;;;;;;;;;;;25.34;41.52;94824.13;4981983;28;9050;-72
2023/01/06 05:56:30;;;;;;;;;;;;;;;25.34;41.29;94819.38;4972416;28;7263;-71
2023/01/06 05:59:00;;;;;;;;;;;;;;;25.34;41.35;94822.13;4969011;28;7708;-72
2023/01/06 06:01:30;;;;;;;;;;;;;;;25.34;41.18;94837.88;4969924;28;9494;-72
2023/01/06 06:03:59;;;;;;;;;;;;;;;25.32;41.25;94841.16;4982877;28;7267;-72
2023/01/06 06:06:28;;;;;;;;;;;;;;;25.35;41.33;94839.41;4956491;28;7022;-73
2023/01/06 06:08:56;;;;;;;;;;;;;;;25.33;41.26;94841.91;4981860;28;7446;-72
2023/01/06 06:11:24;;;;;;;;;;;;;;;25.32;41.01;94838.41;4983958;28;8517;-71
2023/01/06 06:13:54;;;;;;;;;;;;;;;25.31;40.64;94847.91;4962690;28;7287;-72
2023/01/06 06:16:23;;;;;;;;;;;;;;;25.32;41.62;94854.16;4967331;28;7207;-72
2023/01/06 06:18:54;;;;;;;;;;;;;;;25.31;41.41;94855.41;4966803;28;7346;-72
2023/01/06 06:21:26;;;;;;;;;;;;;;;25.29;40.96;94853.16;4967744;28;7918;-72
2023/01/06 06:24:29;;;;;;;;;;;;;;;25.31;40.87;94858.94;4980154;28;9016;-71
2023/01/06 06:27:26;;;;;;;;;;;;;;;25.34;41.36;94860.69;4947803;28;7127;-71
2023/01/06 06:29:55;;;;;;;;;;;;;;;25.30;41.36;94856.66;4872898;29;7041;-71
2023/01/06 06:32:22;;;;;;;;;;;;;;;25.29;41.37;94855.91;4889894;29;7036;-71
2023/01/06 06:34:50;;;;;;;;;;;;;;;25.29;41.06;94858.66;4875013;29;7287;-71
2023/01/06 06:37:20;;;;;;;;;;;;;;;25.29;41.27;94860.69;4874059;29;7521;-71
2023/01/06 06:39:45;;;;;;;;;;;;;;;25.29;40.98;94855.16;4891756;29;8711;-71
2023/01/06 06:42:14;;;;;;;;;;;;;;;25.27;41.16;94857.66;4876125;29;7034;-71
2023/01/06 06:44:40;;;;;;;;;;;;;;;25.26;41.34;94861.66;4891097;29;9150;-71
2023/01/06 06:47:06;;;;;;;;;;;;;;;25.23;40.90;94859.88;4889516;29;7269;-71
2023/01/06 06:49:32;;;;;;;;;;;;;;;25.23;41.81;94857.13;4874602;29;9067;-71
2023/01/06 06:51:57;;;;;;;;;;;;;;;25.24;41.75;94853.91;4878007;29;9222;-71
2023/01/06 06:54:24;;;;;;;;;;;;;;;25.24;41.02;94861.41;4894608;29;7211;-71
2023/01/06 06:57:00;;;;;;;;;;;;;;;25.23;41.23;94857.13;4891730;29;8794;-71
2023/01/06 06:59:28;;;;;;;;;;;;;;;25.23;40.93;94857.13;4884542;29;7057;-71
2023/01/06 07:01:54;;;;;;;;;;;;;;;25.23;41.52;94854.38;4885644;29;9036;-71
2023/01/06 07:04:20;;;;;;;;;;;;;;;25.22;41.01;94855.66;4904976;29;9435;-71
2023/01/06 07:06:46;;;;;;;;;;;;;;;25.25;41.63;94868.44;4950856;28;7257;-71
2023/01/06 07:09:13;;;;;;;;;;;;;;;25.24;41.62;94864.16;4982148;28;7252;-71
2023/01/06 07:11:41;;;;;;;;;;;;;;;25.22;40.83;94869.41;4974823;28;9152;-71
2023/01/06 07:14:38;;;;;;;;;;;;;;;25.23;41.26;94865.41;4975702;28;7240;-71
2023/01/06 07:17:04;;;;;;;;;;;;;;;25.21;41.52;94868.66;4928311;28;7268;-72
2023/01/06 07:19:30;;;;;;;;;;;;;;;25.18;41.15;94860.66;4926733;29;9108;-72
2023/01/06 07:21:56;;;;;;;;;;;;;;;25.18;41.82;94858.66;4933929;29;7006;-71
2023/01/06 07:24:22;;;;;;;;;;;;;;;25.20;41.30;94864.41;4935199;29;7095;-72
2023/01/06 07:26:51;;;;;;;;;;;;;;;25.20;41.68;94863.66;4907134;29;7338;-72
2023/01/06 07:29:17;;;;;;;;;;;;;;;25.20;41.02;94847.91;4904696;29;7258;-72
2023/01/06 07:31:54;;;;;;;;;;;;;;;25.22;41.65;94841.88;4906159;29;8992;-72
2023/01/06 07:34:20;;;;;;;;;;;;;;;25.25;41.90;94840.91;4929421;29;8858;-72
2023/01/06 07:36:50;;;;;;;;;;;;;;;25.27;41.83;94843.91;4929199;28;7362;-72
2023/01/06 07:39:23;;;;;;;;;;;;;;;25.28;40.88;94837.91;4931266;29;7494;-72
2023/01/06 07:41:51;;;;;;;;;;;;;;;25.31;41.50;94842.41;4930058;29;9026;-73
2023/01/06 07:44:17;;;;;;;;;;;;;;;25.33;40.63;94842.66;4931003;29;7594;-71
2023/01/06 07:46:54;;;;;;;;;;;;;;;25.35;41.40;94844.91;4911769;29;7479;-72
2023/01/06 07:49:22;;;;;;;;;;;;;;;25.32;40.93;94843.91;4929828;28;7270;-72
2023/01/06 07:51:52;;;;;;;;;;;;;;;25.31;40.95;94847.16;4917357;29;7026;-70
2023/01/06 07:54:20;;;;;;;;;;;;;;;25.33;41.13;94844.66;4963579;28;7093;-71
2023/01/06 07:56:46;;;;;;;;;;;;;;;25.35;41.07;94842.16;4966919;28;7050;-71
2023/01/06 07:59:12;;;;;;;;;;;;;;;25.37;40.98;94851.44;4979810;28;9044;-71
2023/01/06 08:01:38;;;;;;;;;;;;;;;25.40;41.64;94853.16;4965247;28;7435;-70
2023/01/06 08:04:09;;;;;;;;;;;;;;;25.40;41.15;94853.16;4981081;28;7158;-70
2023/01/06 08:06:38;;;;;;;;;;;;;;;25.41;41.26;94862.94;4969655;28;7353;-71
2023/01/06 08:09:07;;;;;;;;;;;;;;;25.44;41.00;94864.00;4964302;28;7620;-71
2023/01/06 08:11:45;;;;;;;;;;;;;;;25.46;41.21;94869.75;4987529;28;9387;-71
2023/01/06 08:14:17;;;;;;;;;;;;;;;25.49;41.40;94865.25;4969718;28;9033;-71
2023/01/06 08:16:47;;;;;;;;;;;;;;;25.49;40.95;94870.75;4989866;28;7456;-70
2023/01/06 08:19:13;;;;;;;;;;;;;;;25.49;41.86;94877.00;4985069;28;7326;-70
2023/01/06 08:21:39;;;;;;;;;;;;;;;25.50;41.86;94872.25;4966971;28;7210;-70
2023/01/06 08:24:10;;;;;;;;;;;;;;;25.49;41.66;94865.97;4974492;28;7021;-70
2023/01/06 08:26:48;;;;;;;;;;;;;;;25.52;41.24;94867.00;4967026;28;7367;-70
2023/01/06 08:29:22;;;;;;;;;;;;;;;25.54;41.22;94873.50;4969724;28;7280;-70
2023/01/06 08:31:52;;;;;;;;;;;;;;;25.56;41.62;94875.75;4974470;28;7314;-71
2023/01/06 08:34:47;;;;;;;;;;;;;;;25.54;40.94;94875.50;4974605;28;7221;-71
2023/01/06 08:37:28;;;;;;;;;;;;;;;25.54;41.29;94875.50;4915641;29;7078;-71
2023/01/06 08:39:56;;;;;;;;;;;;;;;25.54;41.02;94886.53;4908784;29;9029;-72
2023/01/06 08:42:22;;;;;;;;;;;;;;;25.54;41.16;94878.25;4902655;29;8757;-71
2023/01/06 08:44:57;;;;;;;;;;;;;;;25.53;41.50;94885.78;4904136;29;9417;-70
2023/01/06 08:47:42;;;;;;;;;;;;;;;25.51;41.71;94879.28;4912424;29;7044;-70
2023/01/06 08:50:28;;;;;;;;;;;;;;;25.51;41.15;94877.28;4907548;29;9325;-70
2023/01/06 08:53:09;;;;;;;;;;;;;;;25.49;41.47;94877.00;4923423;29;9650;-70
2023/01/06 08:56:01;;;;;;;;;;;;;;;25.47;41.26;94879.50;4914267;29;7012;-69
2023/01/06 08:58:28;;;;;;;;;;;;;;;25.43;41.27;94890.00;4929550;29;7043;-68
2023/01/06 09:01:19;;;;;;;;;;;;;;;25.42;41.11;94886.50;4922491;29;9148;-68
2023/01/06 09:03:55;;;;;;;;;;;;;;;25.45;41.82;94890.25;4905820;29;7126;-69
2023/01/06 09:06:21;;;;;;;;;;;;;;;25.49;40.79;94890.03;4909495;29;7351;-68
2023/01/06 09:08:48;;;;;;;;;;;;;;;25.50;40.94;94888.78;4909743;29;7354;-69
2023/01/06 09:11:16;;;;;;;;;;;;;;;25.54;41.28;94898.28;4897911;29;7090;-69
2023/01/06 09:13:43;;;;;;;;;;;;;;;25.58;41.04;94900.81;4929639;28;9297;-69
2023/01/06 09:16:16;;;;;;;;;;;;;;;25.58;41.12;94904.31;4972611;28;9046;-69
2023/01/06 09:18:47;;;;;;;;;;;;;;;25.58;40.95;94903.56;4974079;28;9225;-70
2023/01/06 09:21:15;;;;;;;;;;;;;;;25.54;41.62;94903.03;4986807;28;8631;-69
2023/01/06 09:23:49;;;;;;;;;;;;;;;25.57;41.09;94905.56;4972625;28;9190;-70
2023/01/06 09:26:20;;;;;;;;;;;;;;;25.52;40.53;94908.31;4962691;28;7321;-70
2023/01/06 09:28:48;;;;;;;;;;;;;;;25.49;40.94;94914.81;4967495;28;7457;-71
2023/01/06 09:31:18;;;;;;;;;;;;;;;25.51;41.62;94926.84;4965338;28;9081;-71
2023/01/06 09:33:44;;;;;;;;;;;;;;;25.54;41.52;94917.56;4967329;28;6997;-71
2023/01/06 09:36:30;;;;;;;;;;;;;;;25.55;41.28;94924.59;4959411;28;7548;-71
2023/01/06 09:38:58;;;;;;;;;;;;;;;25.54;41.62;94922.31;4968104;28;7026;-71
2023/01/06 09:41:49;;;;;;;;;;;;;;;25.49;41.89;94929.31;4975427;28;9027;-70
2023/01/06 09:44:28;;;;;;;;;;;;;;;25.50;40.88;94925.34;4977589;28;7237;-70
2023/01/06 09:46:57;;;;;;;;;;;;;;;25.51;40.98;94928.84;4958092;28;8996;-70
2023/01/06 09:49:43;;;;;;;;;;;;;;;25.53;41.21;94943.63;4968545;28;9068;-70
2023/01/06 09:52:27;;;;;;;;;;;;;;;25.54;41.26;94942.38;4964363;28;7001;-70
2023/01/06 09:55:04;;;;;;;;;;;;;;;25.52;41.80;94942.13;4970319;28;7103;-70
2023/01/06 09:57:51;;;;;;;;;;;;;;;25.50;40.90;94947.38;4967814;28;8216;-70
2023/01/06 10:00:35;;;;;;;;;;;;;;;25.48;41.78;94955.38;4965683;28;7208;-70
2023/01/06 10:03:03;;;;;;;;;;;;;;;25.50;41.81;94946.59;4969392;28;9073;-70
2023/01/06 10:05:59;;;;;;;;;;;;;;;25.51;41.94;94948.88;4975309;28;7816;-70
2023/01/06 10:08:49;;;;;;;;;;;;;;;25.50;42.07;94943.84;4960399;28;7044;-70
2023/01/06 10:12:14;;;;;;;;;;;;;;;25.50;41.24;94941.84;4964420;28;7053;-70
2023/01/06 10:15:33;;;;;;;;;;;;;;;25.49;41.25;94934.84;4955213;28;7248;-70
2023/01/06 10:18:05;;;;;;;;;;;;;;;25.47;42.29;94937.34;4894793;29;7386;-70
2023/01/06 10:20:37;;;;;;;;;;;;;;;25.48;42.00;94927.84;4914053;29;7252;-70
2023/01/06 10:23:17;;;;;;;;;;;;;;;25.49;41.71;94931.34;4913231;29;7515;-71
2023/01/06 10:25:53;;;;;;;;;;;;;;;25.48;41.88;94936.09;4906237;29;8539;-70
2023/01/06 10:28:36;;;;;;;;;;;;;;;25.50;42.04;94928.09;4894465;29;8225;-70
2023/01/06 10:31:14;;;;;;;;;;;;;;;25.48;41.86;94932.59;4887189;29;9357;-70
2023/01/06 10:33:53;;;;;;;;;;;;;;;25.47;41.80;94925.59;4892507;29;7050;-70
2023/01/06 10:36:47;;;;;;;;;;;;;;;25.48;42.23;94925.06;4887327;29;7654;-70
2023/01/06 10:39:22;;;;;;;;;;;;;;;25.49;42.34;94914.81;4906123;29;7354;-70
2023/01/06 10:41:48;;;;;;;;;;;;;;;25.49;41.73;94918.31;4885196;29;9184;-70
2023/01/06 10:44:17;;;;;;;;;;;;;;;25.49;41.93;94915.56;4894606;29;6992;-70
2023/01/06 10:46:48;;;;;;;;;;;;;;;25.50;41.27;94919.06;4893824;29;9357;-70
2023/01/06 10:49:17;;;;;;;;;;;;;;;25.49;41.83;94921.06;4908353;29;8997;-71
2023/01/06 10:51:56;;;;;;;;;;;;;;;25.49;41.62;94912.06;4893073;29;7271;-70
2023/01/06 10:54:32;;;;;;;;;;;;;;;25.50;42.15;94917.06;4961952;28;9116;-70
2023/01/06 10:57:13;;;;;;;;;;;;;;;25.49;41.86;94907.28;4965800;28;9050;-70
2023/01/06 11:00:12;;;;;;;;;;;;;;;25.51;42.27;94915.06;4965509;28;7865;-70
2023/01/06 11:03:07;;;;;;;;;;;;;;;25.49;41.33;94918.31;4973292;28;9116;-70
2023/01/06 11:05:34;;;;;;;;;;;;;;;25.50;42.02;94902.53;4960297;28;7087;-70
2023/01/06 11:08:00;;;;;;;;;;;;;;;25.51;41.78;94915.84;4953928;28;7038;-70
2023/01/06 11:10:40;;;;;;;;;;;;;;;25.52;41.70;94906.31;4956038;28;9312;-70
2023/01/06 11:13:21;;;;;;;;;;;;;;;25.50;42.04;94902.53;4982779;28;9022;-70
2023/01/06 11:15:48;;;;;;;;;;;;;;;25.48;41.34;94894.78;4963341;28;7140;-70
2023/01/06 11:18:29;;;;;;;;;;;;;;;25.49;41.51;94901.06;4966793;28;7249;-71
2023/01/06 11:21:04;;;;;;;;;;;;;;;25.50;41.89;94906.06;4983463;28;9207;-70
2023/01/06 11:23:31;;;;;;;;;;;;;;;25.50;42.11;94897.78;4980153;28;7052;-70
2023/01/06 11:26:07;;;;;;;;;;;;;;;25.49;41.09;94892.78;4961543;28;7051;-70
2023/01/06 11:29:15;;;;;;;;;;;;;;;25.51;42.12;94902.06;4963956;28;7064;-70
2023/01/06 11:31:49;;;;;;;;;;;;;;;25.51;41.85;94893.03;4909007;29;7289;-70
2023/01/06 11:34:25;;;;;;;;;;;;;;;25.52;41.93;94903.56;4911646;29;7050;-69
2023/01/06 11:36:59;;;;;;;;;;;;;;;25.54;41.42;94908.56;4908303;29;7110;-70
2023/01/06 11:39:36;;;;;;;;;;;;;;;25.54;41.98;94900.28;4907847;29;7065;-70
2023/01/06 11:42:43;;;;;;;;;;;;;;;25.53;41.39;94905.06;4905354;29;8289;-70
2023/01/06 11:45:49;;;;;;;;;;;;;;;25.54;41.45;94900.28;4924151;29;7156;-70
2023/01/06 11:48:26;;;;;;;;;;;;;;;25.52;41.87;94898.03;4905044;29;7383;-70
2023/01/06 11:51:30;;;;;;;;;;;;;;;25.52;41.81;94898.03;4912979;29;7842;-70
2023/01/06 11:54:28;;;;;;;;;;;;;;;25.54;41.85;94897.53;4916587;29;9064;-70
2023/01/06 11:57:44;;;;;;;;;;;;;;;25.52;40.81;94898.03;4928236;29;8696;-70
2023/01/06 12:00:48;;;;;;;;;;;;;;;25.52;41.85;94894.53;4926298;29;7045;-69
2023/01/06 12:04:08;;;;;;;;;;;;;;;25.53;41.99;94905.06;4907387;29;8697;-70
2023/01/06 12:07:02;;;;;;;;;;;;;;;25.52;41.33;94897.28;4873283;29;8825;-70
2023/01/06 12:09:48;;;;;;;;;;;;;;;25.49;41.34;94890.75;4896270;29;7095;-69
2023/01/06 12:12:26;;;;;;;;;;;;;;;25.51;41.77;94882.03;4901430;29;6980;-70
2023/01/06 12:15:30;;;;;;;;;;;;;;;25.52;41.58;94880.75;4901369;29;9078;-70
2023/01/06 12:18:22;;;;;;;;;;;;;;;25.51;41.28;94877.28;4901320;29;7097;-70
2023/01/06 12:20:51;;;;;;;;;;;;;;;25.51;41.74;94871.75;4900621;29;7161;-70
2023/01/06 12:23:33;;;;;;;;;;;;;;;25.50;41.25;94867.50;4916256;29;9409;-70
2023/01/06 12:26:04;;;;;;;;;;;;;;;25.50;41.77;94867.50;4908684;29;7274;-69
2023/01/06 12:28:44;;;;;;;;;;;;;;;25.50;41.87;94866.75;4900598;29;8985;-70
2023/01/06 12:31:33;;;;;;;;;;;;;;;25.51;41.67;94873.75;4915842;29;8579;-69
2023/01/06 12:34:33;;;;;;;;;;;;;;;25.51;41.73;94866.25;4915304;29;7182;-70
2023/01/06 12:37:23;;;;;;;;;;;;;;;25.50;41.48;94864.75;4899134;29;7350;-70
2023/01/06 12:40:01;;;;;;;;;;;;;;;25.52;41.22;94867.00;4900375;28;7511;-70
2023/01/06 12:42:42;;;;;;;;;;;;;;;25.50;40.84;94862.00;4984594;28;7037;-70
2023/01/06 12:45:20;;;;;;;;;;;;;;;25.50;40.93;94859.22;4971559;28;9331;-70
2023/01/06 12:47:55;;;;;;;;;;;;;;;25.49;40.86;94857.72;4967690;28;7041;-70
2023/01/06 12:50:29;;;;;;;;;;;;;;;25.50;41.37;94847.47;4971132;28;7317;-70
2023/01/06 12:53:21;;;;;;;;;;;;;;;25.48;40.98;94850.72;4972050;28;7255;-70
2023/01/06 12:56:41;;;;;;;;;;;;;;;25.51;40.74;94848.97;4978981;28;7247;-70
2023/01/06 12:59:32;;;;;;;;;;;;;;;25.51;41.16;94835.19;4904936;29;7057;-70
2023/01/06 13:02:28;;;;;;;;;;;;;;;25.50;40.66;94837.19;4889309;29;7063;-70
2023/01/06 13:05:13;;;;;;;;;;;;;;;25.51;40.96;94832.44;4887812;29;7329;-70
2023/01/06 13:11:21;;;;;;;;;;;;;;;25.49;41.07;94826.69;4905801;29;9032;-70
2023/01/06 13:14:18;;;;;;;;;;;;;;;25.50;41.57;94823.44;4900085;29;7504;-70
2023/01/06 13:16:57;;;;;;;;;;;;;;;25.55;41.42;94827.44;4887648;29;8817;-70
2023/01/06 13:19:23;;;;;;;;;;;;;;;25.56;41.11;94820.66;4903756;29;7449;-70
2023/01/06 13:21:55;;;;;;;;;;;;;;;25.56;40.49;94812.41;4901044;29;9051;-70
2023/01/06 13:24:43;;;;;;;;;;;;;;;25.54;41.12;94806.66;4906454;29;7925;-70
2023/01/06 13:27:36;;;;;;;;;;;;;;;25.52;40.61;94807.16;4892798;29;9210;-70
2023/01/06 13:30:33;;;;;;;;;;;;;;;25.52;40.57;94807.16;4902124;29;7058;-70
2023/01/06 13:33:19;;;;;;;;;;;;;;;25.50;41.07;94803.38;4936363;28;8978;-70
2023/01/06 13:36:16;;;;;;;;;;;;;;;25.51;41.42;94805.66;4973499;28;7050;-70
2023/01/06 13:39:05;;;;;;;;;;;;;;;25.51;40.99;94800.16;4973307;28;7034;-70
2023/01/06 13:41:42;;;;;;;;;;;;;;;25.50;41.11;94795.13;4971568;28;7320;-70
2023/01/06 13:44:29;;;;;;;;;;;;;;;25.50;40.96;94795.88;4974943;28;7589;-70
2023/01/06 13:47:06;;;;;;;;;;;;;;;25.53;41.00;94803.16;4971131;28;7297;-70
2023/01/06 13:49:36;;;;;;;;;;;;;;;25.52;40.58;94796.13;4957243;28;9003;-70
2023/01/06 13:52:06;;;;;;;;;;;;;;;25.55;40.95;94797.13;4970662;28;8773;-71
2023/01/06 13:54:38;;;;;;;;;;;;;;;25.55;41.38;94806.16;4967285;28;9105;-70
2023/01/06 13:57:39;;;;;;;;;;;;;;;25.54;41.17;94807.41;4961008;28;7213;-70
2023/01/06 14:00:05;;;;;;;;;;;;;;;25.56;41.33;94804.91;4901022;29;9608;-70
2023/01/06 14:02:39;;;;;;;;;;;;;;;25.56;40.40;94802.13;4880877;29;7008;-70